Time,TemperatureF,DewpointF,PressureIn,WindDirection,WindDirectionDegrees,WindSpeedMPH,WindSpeedGustMPH,Humidity,HourlyPrecipIn,Conditions,Clouds,dailyrainin,SoftwareType,DateUTC
2013-03-27 00:03:00,14.2,6.8,26.37,East,84,0.0,0.0,72,0.00,,,-99.99,Weather View 32 v70,2013-03-27 05:03:00,
2013-03-27 00:08:00,14.0,6.9,26.37,East,84,0.0,0.0,73,0.00,,,-99.99,Weather View 32 v70,2013-03-27 05:08:00,
2013-03-27 00:18:00,13.8,6.8,26.37,East,83,0.0,0.0,73,0.00,,,-99.99,Weather View 32 v70,2013-03-27 05:18:00,
2013-03-27 00:27:00,14.0,6.9,26.37,East,84,0.0,0.0,73,0.00,,,-99.99,Weather View 32 v70,2013-03-27 05:27:00,
2013-03-27 00:33:00,14.5,7.8,26.37,East,84,0.0,0.0,74,0.00,,,-99.99,Weather View 32 v70,2013-03-27 05:33:00,
2013-03-27 00:38:00,14.9,8.1,26.37,East,83,0.0,0.0,74,0.00,,,-99.99,Weather View 32 v70,2013-03-27 05:38:00,
2013-03-27 00:43:00,15.1,8.3,26.37,East,84,0.0,0.0,74,0.00,,,-99.99,Weather View 32 v70,2013-03-27 05:43:00,
2013-03-27 00:48:00,15.1,8.6,26.37,East,83,0.0,0.0,75,0.00,,,-99.99,Weather View 32 v70,2013-03-27 05:48:00,
2013-03-27 00:53:00,14.9,8.4,26.37,East,83,0.0,0.0,75,0.00,,,-99.99,Weather View 32 v70,2013-03-27 05:53:00,
2013-03-27 00:58:00,15.1,8.6,26.37,East,84,0.0,0.0,75,0.00,,,-99.99,Weather View 32 v70,2013-03-27 05:58:00,
2013-03-27 01:08:00,14.9,8.4,26.37,East,84,0.0,0.0,75,0.00,,,-99.99,Weather View 32 v70,2013-03-27 06:08:00,
2013-03-27 01:18:00,15.4,9.5,26.37,East,84,0.0,0.0,77,0.00,,,-99.99,Weather View 32 v70,2013-03-27 06:18:00,
2013-03-27 01:23:00,15.6,9.7,26.37,East,83,0.0,0.0,77,0.00,,,-99.99,Weather View 32 v70,2013-03-27 06:23:00,
2013-03-27 01:28:00,15.8,10.2,26.37,East,84,0.0,0.0,78,0.00,,,-99.99,Weather View 32 v70,2013-03-27 06:28:00,
2013-03-27 01:33:00,15.6,10.0,26.37,East,84,0.0,0.0,78,0.00,,,-99.99,Weather View 32 v70,2013-03-27 06:33:00,
2013-03-27 01:42:00,15.3,9.6,26.37,East,83,0.0,0.0,78,0.00,,,-99.99,Weather View 32 v70,2013-03-27 06:42:00,
2013-03-27 01:47:00,15.3,9.6,26.37,East,84,0.0,0.0,78,0.00,,,-99.99,Weather View 32 v70,2013-03-27 06:47:00,
2013-03-27 01:53:00,15.3,9.6,26.37,East,84,3.0,4.0,78,0.00,,,-99.99,Weather View 32 v70,2013-03-27 06:53:00,
2013-03-27 01:58:00,15.6,10.3,26.37,East,97,3.0,4.0,79,0.00,,,-99.99,Weather View 32 v70,2013-03-27 06:58:00,
2013-03-27 02:07:00,15.6,10.6,26.37,ESE,103,2.0,4.0,80,0.00,,,-99.99,Weather View 32 v70,2013-03-27 07:07:00,
2013-03-27 02:17:00,15.6,10.6,26.37,East,80,4.0,5.0,80,0.00,,,-99.99,Weather View 32 v70,2013-03-27 07:17:00,
2013-03-27 02:22:00,15.8,11.0,26.37,ENE,71,3.0,5.0,81,0.00,,,-99.99,Weather View 32 v70,2013-03-27 07:22:00,
2013-03-27 02:28:00,15.8,11.0,26.37,East,94,3.0,5.0,81,0.00,,,-99.99,Weather View 32 v70,2013-03-27 07:28:00,
2013-03-27 02:37:00,15.4,10.7,26.37,ESE,114,0.0,5.0,81,0.00,,,-99.99,Weather View 32 v70,2013-03-27 07:37:00,
2013-03-27 02:47:00,15.1,10.3,26.37,ESE,105,0.0,5.0,81,0.00,,,-99.99,Weather View 32 v70,2013-03-27 07:47:00,
2013-03-27 02:52:00,14.9,10.1,26.37,ESE,104,0.0,5.0,81,0.00,,,-99.99,Weather View 32 v70,2013-03-27 07:52:00,
2013-03-27 02:57:00,14.5,9.8,26.37,ESE,104,0.0,5.0,81,0.00,,,-99.99,Weather View 32 v70,2013-03-27 07:57:00,
2013-03-27 03:07:00,14.2,9.4,26.37,ESE,105,0.0,5.0,81,0.00,,,-99.99,Weather View 32 v70,2013-03-27 08:07:00,
2013-03-27 03:13:00,13.8,9.1,26.37,ESE,104,0.0,5.0,81,0.00,,,-99.99,Weather View 32 v70,2013-03-27 08:13:00,
2013-03-27 03:22:00,13.8,9.1,26.37,ESE,104,0.0,4.0,81,0.00,,,-99.99,Weather View 32 v70,2013-03-27 08:22:00,
2013-03-27 03:27:00,14.0,9.3,26.37,ESE,104,0.0,4.0,81,0.00,,,-99.99,Weather View 32 v70,2013-03-27 08:27:00,
2013-03-27 03:37:00,13.8,9.1,26.37,ESE,103,0.0,4.0,81,0.00,,,-99.99,Weather View 32 v70,2013-03-27 08:37:00,
2013-03-27 03:43:00,13.6,8.9,26.37,ESE,104,0.0,3.0,81,0.00,,,-99.99,Weather View 32 v70,2013-03-27 08:43:00,
2013-03-27 03:53:00,12.7,8.0,26.37,ESE,103,0.0,3.0,81,0.00,,,-99.99,Weather View 32 v70,2013-03-27 08:53:00,
2013-03-27 04:02:00,11.7,7.0,26.37,ESE,104,0.0,3.0,81,0.00,,,-99.99,Weather View 32 v70,2013-03-27 09:02:00,
2013-03-27 04:12:00,11.1,6.4,26.37,ESE,105,0.0,3.0,81,0.00,,,-99.99,Weather View 32 v70,2013-03-27 09:12:00,
2013-03-27 04:22:00,10.2,5.6,26.37,ESE,105,0.0,0.0,81,0.00,,,-99.99,Weather View 32 v70,2013-03-27 09:22:00,
2013-03-27 04:27:00,9.9,5.2,26.37,ESE,104,0.0,0.0,81,0.00,,,-99.99,Weather View 32 v70,2013-03-27 09:27:00,
2013-03-27 04:32:00,9.5,4.9,26.37,ESE,104,0.0,0.0,81,0.00,,,-99.99,Weather View 32 v70,2013-03-27 09:32:00,
2013-03-27 04:37:00,9.7,5.0,26.37,ESE,105,0.0,0.0,81,0.00,,,-99.99,Weather View 32 v70,2013-03-27 09:37:00,
2013-03-27 04:42:00,9.7,5.0,26.37,ESE,104,0.0,0.0,81,0.00,,,-99.99,Weather View 32 v70,2013-03-27 09:42:00,
2013-03-27 04:47:00,9.5,4.9,26.37,ESE,104,0.0,0.0,81,0.00,,,-99.99,Weather View 32 v70,2013-03-27 09:47:00,
2013-03-27 04:52:00,9.1,4.5,26.37,ESE,104,0.0,0.0,81,0.00,,,-99.99,Weather View 32 v70,2013-03-27 09:52:00,
2013-03-27 04:57:00,8.8,4.2,26.37,ESE,104,0.0,0.0,81,0.00,,,-99.99,Weather View 32 v70,2013-03-27 09:57:00,
2013-03-27 05:07:00,8.1,3.4,26.37,ESE,105,0.0,0.0,81,0.00,,,-99.99,Weather View 32 v70,2013-03-27 10:07:00,
2013-03-27 05:12:00,7.7,3.1,26.37,ESE,105,0.0,0.0,81,0.00,,,-99.99,Weather View 32 v70,2013-03-27 10:12:00,
2013-03-27 05:22:00,7.0,2.4,26.37,ESE,104,0.0,0.0,81,0.00,,,-99.99,Weather View 32 v70,2013-03-27 10:22:00,
2013-03-27 05:27:00,6.6,2.0,26.37,ESE,104,0.0,0.0,81,0.00,,,-99.99,Weather View 32 v70,2013-03-27 10:27:00,
2013-03-27 05:37:00,5.9,1.3,26.37,ESE,105,0.0,0.0,81,0.00,,,-99.99,Weather View 32 v70,2013-03-27 10:37:00,
2013-03-27 05:42:00,5.5,1.0,26.37,ESE,104,0.0,0.0,81,0.00,,,-99.99,Weather View 32 v70,2013-03-27 10:42:00,
2013-03-27 05:47:00,5.4,0.8,26.37,ESE,104,0.0,0.0,81,0.00,,,-99.99,Weather View 32 v70,2013-03-27 10:47:00,
2013-03-27 05:58:00,5.0,0.5,26.37,ESE,104,0.0,0.0,81,0.00,,,-99.99,Weather View 32 v70,2013-03-27 10:58:00,
2013-03-27 06:07:00,4.6,0.1,26.37,ESE,105,0.0,0.0,81,0.00,,,-99.99,Weather View 32 v70,2013-03-27 11:07:00,
2013-03-27 06:18:00,4.5,-0.1,26.37,ESE,104,0.0,0.0,81,0.00,,,-99.99,Weather View 32 v70,2013-03-27 11:18:00,
2013-03-27 06:27:00,4.5,-0.1,26.37,ESE,105,0.0,0.0,81,0.00,,,-99.99,Weather View 32 v70,2013-03-27 11:27:00,
2013-03-27 06:32:00,4.5,-0.1,26.37,ESE,104,0.0,0.0,81,0.00,,,-99.99,Weather View 32 v70,2013-03-27 11:32:00,
2013-03-27 06:37:00,4.8,0.3,26.37,ESE,104,0.0,0.0,81,0.00,,,-99.99,Weather View 32 v70,2013-03-27 11:37:00,
2013-03-27 06:47:00,5.9,1.3,26.37,ESE,104,0.0,0.0,81,0.00,,,-99.99,Weather View 32 v70,2013-03-27 11:47:00,
2013-03-27 06:52:00,6.3,1.7,26.37,ESE,104,0.0,0.0,81,0.00,,,-99.99,Weather View 32 v70,2013-03-27 11:52:00,
2013-03-27 06:58:00,7.0,2.4,26.37,ESE,104,0.0,0.0,81,0.00,,,-99.99,Weather View 32 v70,2013-03-27 11:58:00,
2013-03-27 07:07:00,7.9,3.3,26.37,ESE,104,0.0,0.0,81,0.00,,,-99.99,Weather View 32 v70,2013-03-27 12:07:00,
2013-03-27 07:12:00,7.7,3.1,26.37,ESE,104,0.0,0.0,81,0.00,,,-99.99,Weather View 32 v70,2013-03-27 12:12:00,
2013-03-27 07:17:00,7.3,2.7,26.37,ESE,105,0.0,0.0,81,0.00,,,-99.99,Weather View 32 v70,2013-03-27 12:17:00,
2013-03-27 07:27:00,6.8,2.2,26.37,ESE,104,0.0,0.0,81,0.00,,,-99.99,Weather View 32 v70,2013-03-27 12:27:00,
2013-03-27 07:37:00,6.3,1.7,26.37,ESE,104,0.0,0.0,81,0.00,,,-99.99,Weather View 32 v70,2013-03-27 12:37:00,
2013-03-27 07:42:00,6.1,1.5,26.37,ESE,104,0.0,0.0,81,0.00,,,-99.99,Weather View 32 v70,2013-03-27 12:42:00,
2013-03-27 07:52:00,5.5,1.0,26.37,ESE,105,0.0,0.0,81,0.00,,,-99.99,Weather View 32 v70,2013-03-27 12:52:00,
2013-03-27 07:58:00,5.4,0.8,26.37,ESE,103,0.0,0.0,81,0.00,,,-99.99,Weather View 32 v70,2013-03-27 12:58:00,
2013-03-27 08:07:00,5.5,1.0,26.37,ESE,105,0.0,0.0,81,0.00,,,-99.99,Weather View 32 v70,2013-03-27 13:07:00,
2013-03-27 08:12:00,5.9,1.3,26.37,ESE,104,0.0,0.0,81,0.00,,,-99.99,Weather View 32 v70,2013-03-27 13:12:00,
2013-03-27 08:22:00,6.3,1.7,26.37,ESE,105,0.0,0.0,81,0.00,,,-99.99,Weather View 32 v70,2013-03-27 13:22:00,
2013-03-27 08:27:00,6.4,1.9,26.37,ESE,104,0.0,0.0,81,0.00,,,-99.99,Weather View 32 v70,2013-03-27 13:27:00,
2013-03-27 08:38:00,7.0,2.4,26.37,ESE,105,0.0,0.0,81,0.00,,,-99.99,Weather View 32 v70,2013-03-27 13:38:00,
2013-03-27 08:47:00,7.7,3.1,26.37,ESE,104,0.0,0.0,81,0.00,,,-99.99,Weather View 32 v70,2013-03-27 13:47:00,
2013-03-27 08:58:00,7.9,3.3,26.37,ESE,103,0.0,0.0,81,0.00,,,-99.99,Weather View 32 v70,2013-03-27 13:58:00,
2013-03-27 09:07:00,7.9,3.3,26.37,ESE,105,0.0,0.0,81,0.00,,,-99.99,Weather View 32 v70,2013-03-27 14:07:00,
2013-03-27 09:13:00,8.2,3.6,26.37,ESE,104,0.0,0.0,81,0.00,,,-99.99,Weather View 32 v70,2013-03-27 14:13:00,
2013-03-27 09:22:00,9.0,4.3,26.37,ESE,104,0.0,0.0,81,0.00,,,-99.99,Weather View 32 v70,2013-03-27 14:22:00,
2013-03-27 09:32:00,9.7,5.0,26.37,ESE,104,0.0,0.0,81,0.00,,,-99.99,Weather View 32 v70,2013-03-27 14:32:00,
2013-03-27 09:38:00,10.2,5.6,26.37,ESE,103,0.0,0.0,81,0.00,,,-99.99,Weather View 32 v70,2013-03-27 14:38:00,
2013-03-27 09:48:00,11.7,7.0,26.37,ESE,105,0.0,0.0,81,0.00,,,-99.99,Weather View 32 v70,2013-03-27 14:48:00,
2013-03-27 09:53:00,12.2,7.5,26.37,ESE,105,2.0,3.0,81,0.00,,,-99.99,Weather View 32 v70,2013-03-27 14:53:00,
2013-03-27 10:03:00,13.1,8.4,26.37,ESE,105,0.0,3.0,81,0.00,,,-99.99,Weather View 32 v70,2013-03-27 15:03:00,
2013-03-27 10:08:00,13.5,8.7,26.37,ESE,105,0.0,3.0,81,0.00,,,-99.99,Weather View 32 v70,2013-03-27 15:08:00,
2013-03-27 10:13:00,14.0,9.3,26.37,ESE,104,0.0,3.0,81,0.00,,,-99.99,Weather View 32 v70,2013-03-27 15:13:00,
2013-03-27 10:23:00,15.1,10.3,26.37,ESE,107,3.0,3.0,81,0.00,,,-99.99,Weather View 32 v70,2013-03-27 15:23:00,
2013-03-27 10:33:00,16.5,11.7,26.37,ESE,108,0.0,3.0,81,0.00,,,-99.99,Weather View 32 v70,2013-03-27 15:33:00,
2013-03-27 10:38:00,17.2,12.7,26.37,ESE,107,0.0,3.0,82,0.00,,,-99.99,Weather View 32 v70,2013-03-27 15:38:00,
2013-03-27 10:43:00,18.1,13.6,26.37,ESE,108,0.0,3.0,82,0.00,,,-99.99,Weather View 32 v70,2013-03-27 15:43:00,
2013-03-27 10:48:00,19.4,14.8,26.37,ESE,106,0.0,3.0,82,0.00,,,-99.99,Weather View 32 v70,2013-03-27 15:48:00,
2013-03-27 10:58:00,22.6,18.5,26.37,SSE,150,0.0,4.0,84,0.00,,,-99.99,Weather View 32 v70,2013-03-27 15:58:00,
2013-03-27 11:03:00,23.5,19.4,26.37,South,172,3.0,4.0,84,0.00,,,-99.99,Weather View 32 v70,2013-03-27 16:03:00,
2013-03-27 11:12:00,23.5,18.6,26.37,SSE,160,0.0,4.0,81,0.00,,,-99.99,Weather View 32 v70,2013-03-27 16:12:00,
2013-03-27 11:17:00,24.3,19.0,26.37,SSE,162,0.0,4.0,80,0.00,,,-99.99,Weather View 32 v70,2013-03-27 16:17:00,
2013-03-27 11:27:00,24.1,17.9,26.37,WSW,241,3.0,4.0,77,0.00,,,-99.99,Weather View 32 v70,2013-03-27 16:27:00,
2013-03-27 11:32:00,22.8,16.1,26.37,West,264,4.0,5.0,75,0.00,,,-99.99,Weather View 32 v70,2013-03-27 16:32:00,
2013-03-27 11:42:00,21.7,14.7,26.37,West,263,4.0,5.0,74,0.00,,,-99.99,Weather View 32 v70,2013-03-27 16:42:00,
2013-03-27 11:47:00,21.7,14.7,26.37,West,264,3.0,5.0,74,0.00,,,-99.99,Weather View 32 v70,2013-03-27 16:47:00,
2013-03-27 11:57:00,21.9,14.3,26.37,West,278,6.0,7.0,72,0.00,,,-99.99,Weather View 32 v70,2013-03-27 16:57:00,
2013-03-27 12:02:00,21.7,13.1,26.37,West,277,3.0,7.0,69,0.00,,,-99.99,Weather View 32 v70,2013-03-27 17:02:00,
2013-03-27 12:07:00,21.7,13.1,26.37,West,278,5.0,7.0,69,0.00,,,-99.99,Weather View 32 v70,2013-03-27 17:07:00,
2013-03-27 12:17:00,22.1,13.5,26.37,West,263,5.0,7.0,69,0.00,,,-99.99,Weather View 32 v70,2013-03-27 17:17:00,
2013-03-27 12:22:00,21.9,13.3,26.37,West,265,0.0,7.0,69,0.00,,,-99.99,Weather View 32 v70,2013-03-27 17:22:00,
2013-03-27 12:33:00,24.8,17.4,26.37,West,265,3.0,7.0,73,0.00,,,-99.99,Weather View 32 v70,2013-03-27 17:33:00,
2013-03-27 12:38:00,25.5,18.1,26.37,West,264,2.0,7.0,73,0.00,,,-99.99,Weather View 32 v70,2013-03-27 17:38:00,
2013-03-27 12:43:00,27.5,20.6,26.37,SSE,163,4.0,7.0,75,0.00,,,-99.99,Weather View 32 v70,2013-03-27 17:43:00,
2013-03-27 12:53:00,31.5,24.8,26.37,SSE,165,0.0,7.0,76,0.00,,,-99.99,Weather View 32 v70,2013-03-27 17:53:00,
2013-03-27 12:58:00,32.2,24.8,26.37,SSE,167,4.0,6.0,74,0.00,,,-99.99,Weather View 32 v70,2013-03-27 17:58:00,
2013-03-27 13:03:00,32.2,22.5,26.37,SE,138,0.0,6.0,67,0.00,,,-99.99,Weather View 32 v70,2013-03-27 18:03:00,
2013-03-27 13:13:00,32.0,18.5,26.37,SSE,157,3.0,6.0,57,0.00,,,-99.99,Weather View 32 v70,2013-03-27 18:13:00,
2013-03-27 13:23:00,32.0,18.1,26.37,SSE,167,4.0,6.0,56,0.00,,,-99.99,Weather View 32 v70,2013-03-27 18:23:00,
2013-03-27 13:28:00,31.3,15.7,26.37,South,177,0.0,6.0,52,0.00,,,-99.99,Weather View 32 v70,2013-03-27 18:28:00,
2013-03-27 13:35:00,30.6,15.4,26.37,SSE,158,2.0,6.0,53,0.00,,,-99.99,Weather View 32 v70,2013-03-27 18:35:00,
2013-03-27 13:43:00,30.9,16.6,26.37,SSE,164,4.0,6.0,55,0.00,,,-99.99,Weather View 32 v70,2013-03-27 18:43:00,
2013-03-27 13:48:00,31.1,16.4,26.37,SW,228,0.0,6.0,54,0.00,,,-99.99,Weather View 32 v70,2013-03-27 18:48:00,
2013-03-27 13:58:00,32.2,17.0,26.37,South,169,3.0,6.0,53,0.00,,,-99.99,Weather View 32 v70,2013-03-27 18:58:00,
2013-03-27 14:03:00,32.7,18.7,26.37,SSE,152,4.0,6.0,56,0.00,,,-99.99,Weather View 32 v70,2013-03-27 19:03:00,
2013-03-27 14:12:00,33.6,19.6,26.37,SW,220,3.0,6.0,56,0.00,,,-99.99,Weather View 32 v70,2013-03-27 19:12:00,
2013-03-27 14:17:00,33.8,20.2,26.37,South,178,3.0,6.0,57,0.00,,,-99.99,Weather View 32 v70,2013-03-27 19:17:00,
2013-03-27 14:27:00,33.8,21.4,26.37,SSE,167,3.0,5.0,60,0.00,,,-99.99,Weather View 32 v70,2013-03-27 19:27:00,
2013-03-27 14:36:00,33.8,22.1,26.37,South,169,6.0,6.0,62,0.00,,,-99.99,Weather View 32 v70,2013-03-27 19:36:00,
2013-03-27 14:42:00,34.2,22.1,26.37,South,176,4.0,6.0,61,0.00,,,-99.99,Weather View 32 v70,2013-03-27 19:42:00,
2013-03-27 14:47:00,34.0,20.7,26.37,South,176,0.0,6.0,58,0.00,,,-99.99,Weather View 32 v70,2013-03-27 19:47:00,
2013-03-27 14:52:00,34.2,19.2,26.37,SE,136,4.0,7.0,54,0.00,,,-99.99,Weather View 32 v70,2013-03-27 19:52:00,
2013-03-27 14:57:00,34.7,20.2,26.37,SE,135,3.0,7.0,55,0.00,,,-99.99,Weather View 32 v70,2013-03-27 19:57:00,
2013-03-27 15:07:00,34.9,19.0,26.37,South,183,4.0,9.0,52,0.00,,,-99.99,Weather View 32 v70,2013-03-27 20:07:00,
2013-03-27 15:12:00,35.4,19.5,26.37,SE,137,6.0,9.0,52,0.00,,,-99.99,Weather View 32 v70,2013-03-27 20:12:00,
2013-03-27 15:22:00,36.1,18.8,26.37,SSE,155,5.0,9.0,49,0.00,,,-99.99,Weather View 32 v70,2013-03-27 20:22:00,
2013-03-27 15:33:00,36.0,17.7,26.37,SE,139,5.0,9.0,47,0.00,,,-99.99,Weather View 32 v70,2013-03-27 20:33:00,
2013-03-27 15:38:00,35.8,17.5,26.37,SE,142,4.0,9.0,47,0.00,,,-99.99,Weather View 32 v70,2013-03-27 20:38:00,
2013-03-27 15:48:00,35.6,17.8,26.37,SE,139,5.0,9.0,48,0.00,,,-99.99,Weather View 32 v70,2013-03-27 20:48:00,
2013-03-27 15:53:00,35.6,17.8,26.37,SE,140,3.0,9.0,48,0.00,,,-99.99,Weather View 32 v70,2013-03-27 20:53:00,
2013-03-27 16:03:00,36.0,18.2,26.37,ESE,121,6.0,8.0,48,0.00,,,-99.99,Weather View 32 v70,2013-03-27 21:03:00,
2013-03-27 16:08:00,36.0,18.6,26.37,SE,143,3.0,8.0,49,0.00,,,-99.99,Weather View 32 v70,2013-03-27 21:08:00,
2013-03-27 16:18:00,35.6,18.3,26.37,SSE,153,8.0,8.0,49,0.00,,,-99.99,Weather View 32 v70,2013-03-27 21:18:00,
2013-03-27 16:23:00,35.6,18.8,26.37,ESE,105,5.0,8.0,50,0.00,,,-99.99,Weather View 32 v70,2013-03-27 21:23:00,
2013-03-27 16:33:00,35.6,18.8,26.37,SE,144,6.0,9.0,50,0.00,,,-99.99,Weather View 32 v70,2013-03-27 21:33:00,
2013-03-27 16:38:00,35.8,18.9,26.37,SE,145,5.0,9.0,50,0.00,,,-99.99,Weather View 32 v70,2013-03-27 21:38:00,
2013-03-27 16:48:00,36.1,19.3,26.37,ESE,123,6.0,9.0,50,0.00,,,-99.99,Weather View 32 v70,2013-03-27 21:48:00,
2013-03-27 16:53:00,36.3,19.4,26.37,SE,135,6.0,9.0,50,0.00,,,-99.99,Weather View 32 v70,2013-03-27 21:53:00,
2013-03-27 16:58:00,36.5,20.1,26.37,SE,143,8.0,9.0,51,0.00,,,-99.99,Weather View 32 v70,2013-03-27 21:58:00,
2013-03-27 17:08:00,36.7,20.2,26.37,ESE,108,6.0,9.0,51,0.00,,,-99.99,Weather View 32 v70,2013-03-27 22:08:00,
2013-03-27 17:17:00,36.5,20.1,26.37,SE,129,6.0,9.0,51,0.00,,,-99.99,Weather View 32 v70,2013-03-27 22:17:00,
2013-03-27 17:22:00,36.5,20.1,26.37,SSW,195,6.0,9.0,51,0.00,,,-99.99,Weather View 32 v70,2013-03-27 22:22:00,
2013-03-27 17:32:00,36.5,19.6,26.37,SSE,161,6.0,10.0,50,0.00,,,-99.99,Weather View 32 v70,2013-03-27 22:32:00,
2013-03-27 17:42:00,36.7,19.3,26.37,South,170,4.0,10.0,49,0.00,,,-99.99,Weather View 32 v70,2013-03-27 22:42:00,
2013-03-27 17:47:00,36.9,19.5,26.37,ESE,123,3.0,10.0,49,0.00,,,-99.99,Weather View 32 v70,2013-03-27 22:47:00,
2013-03-27 17:52:00,36.7,19.3,26.37,SSE,150,5.0,10.0,49,0.00,,,-99.99,Weather View 32 v70,2013-03-27 22:52:00,
2013-03-27 18:02:00,36.5,19.6,26.37,South,177,6.0,10.0,50,0.00,,,-99.99,Weather View 32 v70,2013-03-27 23:02:00,
2013-03-27 18:07:00,36.3,19.0,26.37,SSE,166,6.0,10.0,49,0.00,,,-99.99,Weather View 32 v70,2013-03-27 23:07:00,
2013-03-27 18:17:00,36.3,19.4,26.37,SE,142,3.0,10.0,50,0.00,,,-99.99,Weather View 32 v70,2013-03-27 23:17:00,
2013-03-27 18:22:00,36.1,19.3,26.37,SSE,155,4.0,10.0,50,0.00,,,-99.99,Weather View 32 v70,2013-03-27 23:22:00,
2013-03-27 18:33:00,36.0,19.1,26.37,SSW,202,5.0,10.0,50,0.00,,,-99.99,Weather View 32 v70,2013-03-27 23:33:00,
2013-03-27 18:39:00,35.8,19.4,26.37,SE,144,4.0,9.0,51,0.00,,,-99.99,Weather View 32 v70,2013-03-27 23:39:00,
2013-03-27 18:48:00,35.2,19.4,26.37,SE,138,4.0,9.0,52,0.00,,,-99.99,Weather View 32 v70,2013-03-27 23:48:00,
2013-03-27 18:53:00,34.9,19.0,26.37,South,172,4.0,9.0,52,0.00,,,-99.99,Weather View 32 v70,2013-03-27 23:53:00,
2013-03-27 18:58:00,34.7,19.3,26.37,ESE,116,4.0,9.0,53,0.00,,,-99.99,Weather View 32 v70,2013-03-27 23:58:00,
2013-03-27 19:08:00,34.3,19.4,26.37,SSE,163,4.0,9.0,54,0.00,,,-99.99,Weather View 32 v70,2013-03-28 00:08:00,
2013-03-27 19:18:00,34.0,19.5,26.37,SE,144,3.0,9.0,55,0.00,,,-99.99,Weather View 32 v70,2013-03-28 00:18:00,
2013-03-27 19:28:00,33.6,19.6,26.37,SSE,153,8.0,9.0,56,0.00,,,-99.99,Weather View 32 v70,2013-03-28 00:28:00,
2013-03-27 19:33:00,33.4,19.4,26.37,SSE,155,5.0,9.0,56,0.00,,,-99.99,Weather View 32 v70,2013-03-28 00:33:00,
2013-03-27 19:39:00,33.3,19.2,26.37,SE,125,4.0,9.0,56,0.00,,,-99.99,Weather View 32 v70,2013-03-28 00:39:00,
2013-03-27 19:48:00,33.1,19.1,26.37,SSE,151,3.0,9.0,56,0.00,,,-99.99,Weather View 32 v70,2013-03-28 00:48:00,
2013-03-27 19:53:00,32.9,18.9,26.37,SE,138,3.0,9.0,56,0.00,,,-99.99,Weather View 32 v70,2013-03-28 00:53:00,
2013-03-27 20:03:00,32.7,18.3,26.37,South,173,3.0,9.0,55,0.00,,,-99.99,Weather View 32 v70,2013-03-28 01:03:00,
2013-03-27 20:12:00,32.5,18.2,26.37,SE,124,3.0,9.0,55,0.00,,,-99.99,Weather View 32 v70,2013-03-28 01:12:00,
2013-03-27 20:17:00,32.4,18.0,26.37,SE,146,2.0,9.0,55,0.00,,,-99.99,Weather View 32 v70,2013-03-28 01:17:00,
2013-03-27 20:22:00,32.2,17.8,26.37,South,185,4.0,9.0,55,0.00,,,-99.99,Weather View 32 v70,2013-03-28 01:22:00,
2013-03-27 20:32:00,32.2,17.8,26.37,ESE,116,3.0,8.0,55,0.00,,,-99.99,Weather View 32 v70,2013-03-28 01:32:00,
2013-03-27 20:37:00,32.0,17.6,26.37,South,177,3.0,8.0,55,0.00,,,-99.99,Weather View 32 v70,2013-03-28 01:37:00,
2013-03-27 20:47:00,31.8,17.9,26.37,SE,143,4.0,8.0,56,0.00,,,-99.99,Weather View 32 v70,2013-03-28 01:47:00,
2013-03-27 20:52:00,31.6,17.7,26.37,SSE,154,3.0,8.0,56,0.00,,,-99.99,Weather View 32 v70,2013-03-28 01:52:00,
2013-03-27 20:57:00,31.5,17.6,26.37,SSE,147,2.0,8.0,56,0.00,,,-99.99,Weather View 32 v70,2013-03-28 01:57:00,
2013-03-27 21:07:00,30.9,17.1,26.37,SE,144,0.0,7.0,56,0.00,,,-99.99,Weather View 32 v70,2013-03-28 02:07:00,
2013-03-27 21:12:00,30.7,16.9,26.37,SE,143,3.0,7.0,56,0.00,,,-99.99,Weather View 32 v70,2013-03-28 02:12:00,
2013-03-27 21:22:00,30.2,16.8,26.37,SSE,147,0.0,6.0,57,0.00,,,-99.99,Weather View 32 v70,2013-03-28 02:22:00,
2013-03-27 21:27:00,30.0,17.0,26.37,SSE,158,3.0,6.0,58,0.00,,,-99.99,Weather View 32 v70,2013-03-28 02:27:00,
2013-03-27 21:33:00,30.0,17.4,26.37,SSE,168,3.0,6.0,59,0.00,,,-99.99,Weather View 32 v70,2013-03-28 02:33:00,
2013-03-27 21:40:00,30.2,17.6,26.37,ESE,107,3.0,6.0,59,0.00,,,-99.99,Weather View 32 v70,2013-03-28 02:40:00,
2013-03-27 21:48:00,30.2,17.6,26.37,SSE,152,4.0,6.0,59,0.00,,,-99.99,Weather View 32 v70,2013-03-28 02:48:00,
2013-03-27 21:53:00,30.2,17.6,26.37,SSE,147,4.0,6.0,59,0.00,,,-99.99,Weather View 32 v70,2013-03-28 02:53:00,
2013-03-27 21:58:00,30.2,17.6,26.37,SE,132,5.0,6.0,59,0.00,,,-99.99,Weather View 32 v70,2013-03-28 02:58:00,
2013-03-27 22:08:00,30.2,17.6,26.37,SE,146,4.0,6.0,59,0.00,,,-99.99,Weather View 32 v70,2013-03-28 03:08:00,
2013-03-27 22:13:00,30.2,17.6,26.37,SE,138,0.0,6.0,59,0.00,,,-99.99,Weather View 32 v70,2013-03-28 03:13:00,
2013-03-27 22:23:00,29.7,17.1,26.37,SE,138,0.0,6.0,59,0.00,,,-99.99,Weather View 32 v70,2013-03-28 03:23:00,
2013-03-27 22:28:00,29.5,16.9,26.37,SE,137,0.0,6.0,59,0.00,,,-99.99,Weather View 32 v70,2013-03-28 03:28:00,
2013-03-27 22:38:00,29.1,17.0,26.37,SE,139,4.0,6.0,60,0.00,,,-99.99,Weather View 32 v70,2013-03-28 03:38:00,
2013-03-27 22:48:00,28.9,17.2,26.37,SSE,149,0.0,6.0,61,0.00,,,-99.99,Weather View 32 v70,2013-03-28 03:48:00,
2013-03-27 22:53:00,28.6,16.8,26.37,SSE,149,0.0,6.0,61,0.00,,,-99.99,Weather View 32 v70,2013-03-28 03:53:00,
2013-03-27 22:58:00,28.4,17.0,26.37,SSE,149,3.0,6.0,62,0.00,,,-99.99,Weather View 32 v70,2013-03-28 03:58:00,
2013-03-27 23:03:00,28.0,16.7,26.37,SSE,149,0.0,5.0,62,0.00,,,-99.99,Weather View 32 v70,2013-03-28 04:03:00,
2013-03-27 23:07:00,27.9,16.9,26.37,SSE,147,3.0,5.0,63,0.00,,,-99.99,Weather View 32 v70,2013-03-28 04:07:00,
2013-03-27 23:12:00,27.5,16.6,26.37,SSE,152,2.0,5.0,63,0.00,,,-99.99,Weather View 32 v70,2013-03-28 04:12:00,
2013-03-27 23:17:00,27.1,16.2,26.37,SE,142,3.0,5.0,63,0.00,,,-99.99,Weather View 32 v70,2013-03-28 04:17:00,
2013-03-27 23:27:00,26.8,16.2,26.37,ESE,113,4.0,6.0,64,0.00,,,-99.99,Weather View 32 v70,2013-03-28 04:27:00,
2013-03-27 23:32:00,26.6,16.4,26.37,SSE,150,4.0,6.0,65,0.00,,,-99.99,Weather View 32 v70,2013-03-28 04:32:00,
2013-03-27 23:41:00,26.6,16.4,26.37,SE,135,3.0,6.0,65,0.00,,,-99.99,Weather View 32 v70,2013-03-28 04:41:00,
2013-03-27 23:42:00,26.6,16.8,26.37,SE,146,4.0,6.0,66,0.00,,,-99.99,Weather View 32 v70,2013-03-28 04:42:00,
2013-03-27 23:47:00,26.6,16.8,26.37,SE,131,2.0,6.0,66,0.00,,,-99.99,Weather View 32 v70,2013-03-28 04:47:00,
2013-03-27 23:52:00,26.6,16.4,26.37,SE,137,4.0,6.0,65,0.00,,,-99.99,Weather View 32 v70,2013-03-28 04:52:00,
2013-03-27 23:57:00,26.4,16.2,26.37,SE,142,4.0,6.0,65,0.00,,,-99.99,Weather View 32 v70,2013-03-28 04:57:00,